Main page
Satellite images 15-day forecastsClimateMarine weather Cyclones Lightning AirportsFAQ Newsletter About
Weather : Europe Africa North America South America Asia Australia-Oceania Others
Languages Contact

Islamabad, Pakistan

latitude: 33-37N, longitude: 073-06E, elevation: 507 m


METAR: OPRN 010700Z 23006KT 4000 HZ FEW100 24/10 Q1018/30.07
TAF: OPRN 010330Z 0106/0212 23005KT 2000 BR SCT040 SCT100 TEMPO 0200/0204 23010KT 3000 BR

Time: 12:12 (07:12 UTC)

Current weather observation

The report was made 12 minutes ago, at 07:00 UTC
Wind 6 kt from the Southwest
Temperature 24°C
Humidity 41%
Pressure 1018 hPa
Visibility: 4000 m
Few clouds at a height of 10000 ft
haze

Change units

Forecast

The report was made 3 hours and 42 minutes ago, at 03:30 UTC
Forecast valid from 01 at 06 UTC to 02 at 12 UTC
Wind 5 kt from the Southwest
Visibility: 2000 m
Scattered clouds at a height of 4000 ft
Scattered clouds at a height of 10000 ft
mist
Temporary
from 02 at 00 UTC to 02 at 04 UTC
Wind 10 kt from the Southwest
Visibility: 3000 m
mist
The information on this site is subject to a disclaimer
Weather : Europe Africa North America South America Asia Australia-Oceania Others
Satellite images 15-day forecastsClimateMarine weather Cyclones Lightning AirportsFAQ Languages Contact Newsletter About